Time;durP1;ratioP1;P1;durP2;ratioP2;P2;SDS_P1;SDS_P2;PMS_P1;PMS_P2;Temp;Humidity;BMP_temperature;BMP_pressure;BME280_temperature;BME280_humidity;BME280_pressure;Samples;Min_cycle;Max_cycle;Signal;HPM_P1;HPM_P2
2023/09/07 05:34:53;;;;;;;14.48;4.70;;;20.30;70.50;;;;;;6294537;22;20034;-74
2023/09/07 05:37:20;;;;;;;10.38;3.83;;;20.30;70.90;;;;;;6307702;22;20125;-74
2023/09/07 05:39:48;;;;;;;18.50;4.03;;;20.30;71.40;;;;;;6307501;22;20380;-74
2023/09/07 05:42:16;;;;;;;13.68;4.38;;;20.30;72.00;;;;;;6278888;22;20470;-74
2023/09/07 05:44:43;;;;;;;12.98;4.45;;;20.30;72.40;;;;;;6280483;22;19996;-74
2023/09/07 05:47:10;;;;;;;12.07;3.95;;;20.40;72.80;;;;;;6307002;22;20334;-74
2023/09/07 05:49:37;;;;;;;12.48;4.13;;;20.30;73.20;;;;;;6279989;22;20003;-74
2023/09/07 05:52:05;;;;;;;16.85;4.10;;;20.30;73.50;;;;;;6307327;22;20045;-74
2023/09/07 05:54:32;;;;;;;12.95;4.00;;;20.30;73.50;;;;;;6279564;22;20074;-74
2023/09/07 05:56:59;;;;;;;8.80;3.35;;;20.30;74.20;;;;;;6254776;22;20074;-74
2023/09/07 05:59:26;;;;;;;13.35;3.88;;;20.30;74.00;;;;;;6307322;22;20021;-74
2023/09/07 06:01:54;;;;;;;13.45;4.03;;;20.30;74.30;;;;;;6307249;22;20013;-74
2023/09/07 06:04:21;;;;;;;11.52;3.88;;;20.30;74.50;;;;;;6307187;22;20332;-74
2023/09/07 06:06:48;;;;;;;18.67;3.80;;;20.20;74.60;;;;;;6306501;22;20015;-74
2023/09/07 06:09:15;;;;;;;16.08;4.25;;;20.30;74.70;;;;;;6307025;22;20041;-74
2023/09/07 06:11:43;;;;;;;15.35;4.55;;;20.40;74.80;;;;;;6307102;22;20472;-74
2023/09/07 06:14:10;;;;;;;22.15;7.38;;;20.40;74.60;;;;;;6279771;22;19999;-74
2023/09/07 06:16:37;;;;;;;11.38;5.25;;;20.40;74.90;;;;;;6307215;22;19999;-74
2023/09/07 06:19:05;;;;;;;15.65;4.13;;;20.30;75.20;;;;;;6307211;22;20003;-74
2023/09/07 06:21:32;;;;;;;15.60;4.00;;;20.30;75.20;;;;;;6307210;22;20490;-74
2023/09/07 06:23:59;;;;;;;12.63;4.07;;;20.40;75.40;;;;;;6307723;22;20086;-74
2023/09/07 06:26:27;;;;;;;16.40;4.10;;;20.30;75.20;;;;;;6307625;22;20067;-74
2023/09/07 06:28:54;;;;;;;16.35;4.63;;;20.40;75.30;;;;;;6307368;22;20431;-79
2023/09/07 06:31:21;;;;;;;17.15;4.53;;;20.40;75.10;;;;;;6303502;22;20061;-81
2023/09/07 06:33:48;;;;;;;16.00;4.03;;;20.40;74.90;;;;;;6303868;22;20027;-78
2023/09/07 06:36:16;;;;;;;14.35;4.00;;;20.40;75.30;;;;;;6276610;22;20098;-80
2023/09/07 06:38:43;;;;;;;16.10;4.22;;;20.40;75.20;;;;;;6304045;22;20074;-78
2023/09/07 06:41:12;;;;;;;14.75;3.80;;;20.30;75.60;;;;;;6276832;22;19998;-79
2023/09/07 06:43:39;;;;;;;17.83;4.05;;;20.30;75.90;;;;;;6303679;22;20029;-79
2023/09/07 06:46:08;;;;;;;14.65;3.90;;;20.30;76.00;;;;;;6303901;22;20000;-78
2023/09/07 06:48:35;;;;;;;20.40;4.35;;;20.20;76.20;;;;;;6276696;22;20003;-78
2023/09/07 06:51:04;;;;;;;16.13;3.60;;;20.20;76.20;;;;;;6303869;22;20007;-79
2023/09/07 06:53:31;;;;;;;16.23;4.40;;;20.20;76.50;;;;;;6304358;22;20105;-77
2023/09/07 06:56:02;;;;;;;18.52;5.13;;;20.20;76.60;;;;;;6304616;22;20441;-79
2023/09/07 06:58:32;;;;;;;14.73;3.75;;;20.20;76.50;;;;;;6304598;22;20503;-79
2023/09/07 07:00:59;;;;;;;24.95;4.20;;;20.10;76.70;;;;;;6251894;22;19999;-77
2023/09/07 07:03:28;;;;;;;12.57;4.10;;;20.10;76.70;;;;;;6276627;22;20011;-78
2023/09/07 07:05:56;;;;;;;14.18;4.05;;;20.10;77.00;;;;;;6251293;22;20196;-78
2023/09/07 07:08:23;;;;;;;14.50;4.05;;;20.10;77.10;;;;;;6303708;22;20007;-79
2023/09/07 07:10:50;;;;;;;19.70;4.22;;;20.10;77.10;;;;;;6303517;22;20007;-80
2023/09/07 07:13:18;;;;;;;21.15;3.92;;;20.10;77.00;;;;;;6303854;22;20011;-80
2023/09/07 07:15:45;;;;;;;13.70;4.50;;;20.10;77.30;;;;;;6303529;22;19999;-80
2023/09/07 07:18:12;;;;;;;18.10;4.80;;;20.10;77.20;;;;;;6302197;22;20390;-80
2023/09/07 07:20:40;;;;;;;20.67;5.57;;;20.10;77.70;;;;;;6302805;22;20056;-80
2023/09/07 07:23:07;;;;;;;16.58;4.53;;;20.10;77.90;;;;;;6300299;22;20009;-74
2023/09/07 07:25:34;;;;;;;20.10;4.53;;;20.10;78.10;;;;;;6250830;22;20019;-76
2023/09/07 07:28:05;;;;;;;16.33;4.60;;;20.00;78.20;;;;;;6303485;22;20000;-77
2023/09/07 07:30:36;;;;;;;20.77;4.78;;;20.00;78.30;;;;;;6275498;22;20003;-73
2023/09/07 07:33:04;;;;;;;18.75;4.47;;;20.00;78.50;;;;;;6302796;22;20019;-74
2023/09/07 07:35:32;;;;;;;21.70;4.65;;;19.90;78.60;;;;;;6303009;22;20050;-74
2023/09/07 07:37:59;;;;;;;23.02;5.07;;;19.90;78.80;;;;;;6302850;22;20007;-75
2023/09/07 07:40:26;;;;;;;19.48;4.78;;;19.80;78.90;;;;;;6276229;22;20000;-74
2023/09/07 07:42:54;;;;;;;23.95;4.82;;;19.90;78.90;;;;;;6275662;22;20094;-73
2023/09/07 07:45:21;;;;;;;21.08;4.40;;;19.80;79.30;;;;;;6302978;22;20418;-74
2023/09/07 07:47:54;;;;;;;21.27;4.63;;;19.80;79.30;;;;;;6276036;22;20114;-75
2023/09/07 07:50:21;;;;;;;22.33;3.83;;;19.80;79.30;;;;;;6303377;22;20470;-76
2023/09/07 07:52:49;;;;;;;25.63;5.55;;;19.80;79.60;;;;;;6304000;22;20118;-76
2023/09/07 07:55:16;;;;;;;16.50;4.22;;;19.80;79.50;;;;;;6275501;22;20378;-76
2023/09/07 07:57:43;;;;;;;17.58;4.63;;;19.80;79.50;;;;;;6274621;22;20040;-76
2023/09/07 08:00:11;;;;;;;17.75;4.75;;;19.80;79.40;;;;;;6302090;22;20099;-75
2023/09/07 08:02:38;;;;;;;20.13;4.70;;;19.80;79.40;;;;;;6302538;22;20106;-75
2023/09/07 08:05:06;;;;;;;17.83;4.88;;;19.70;79.20;;;;;;6301686;22;20030;-75
2023/09/07 08:07:33;;;;;;;17.80;4.53;;;19.70;79.00;;;;;;6303206;22;20007;-75
2023/09/07 08:10:00;;;;;;;22.35;4.72;;;19.70;79.10;;;;;;6302609;22;20010;-75
2023/09/07 08:12:28;;;;;;;17.80;4.20;;;19.70;78.90;;;;;;6302455;22;20438;-75
2023/09/07 08:14:55;;;;;;;14.18;4.25;;;19.70;78.00;;;;;;6302881;22;20023;-75
2023/09/07 08:17:24;;;;;;;17.00;4.07;;;19.70;77.70;;;;;;6275289;22;20007;-75
2023/09/07 08:19:56;;;;;;;14.00;4.63;;;19.70;77.50;;;;;;6302949;22;20011;-76
2023/09/07 08:22:23;;;;;;;14.13;4.10;;;19.70;77.20;;;;;;6300361;22;20011;-75
2023/09/07 08:24:52;;;;;;;15.57;4.13;;;19.80;76.80;;;;;;6301488;22;20003;-75
2023/09/07 08:27:19;;;;;;;12.00;4.00;;;19.80;76.80;;;;;;6301267;22;20008;-74
2023/09/07 08:29:51;;;;;;;10.70;4.07;;;19.80;76.60;;;;;;6273928;22;20019;-74
2023/09/07 08:32:19;;;;;;;16.60;4.35;;;19.80;76.60;;;;;;6301849;22;20011;-73
2023/09/07 08:34:46;;;;;;;14.65;4.10;;;19.80;76.10;;;;;;6275606;22;20031;-75
2023/09/07 08:37:13;;;;;;;17.27;4.30;;;19.80;76.00;;;;;;6302671;22;20335;-75
2023/09/07 08:39:40;;;;;;;16.02;4.18;;;19.90;76.00;;;;;;6302154;22;20289;-73
2023/09/07 08:42:07;;;;;;;11.60;3.65;;;19.90;76.10;;;;;;6302616;22;20434;-73
2023/09/07 08:44:36;;;;;;;15.07;4.80;;;19.90;76.00;;;;;;6250478;22;20003;-73
2023/09/07 08:47:04;;;;;;;18.02;4.70;;;19.90;76.10;;;;;;6275075;22;20011;-75
2023/09/07 08:49:32;;;;;;;11.35;3.90;;;19.90;76.10;;;;;;6250478;22;20344;-79
2023/09/07 08:52:00;;;;;;;15.18;4.18;;;19.80;76.00;;;;;;6276042;22;20390;-76
2023/09/07 08:54:27;;;;;;;17.30;4.45;;;19.80;75.80;;;;;;6275887;22;20447;-74
2023/09/07 08:56:56;;;;;;;14.23;4.50;;;19.90;75.60;;;;;;6304644;22;20007;-76
2023/09/07 08:59:24;;;;;;;15.18;4.57;;;20.00;75.30;;;;;;6252688;22;20009;-76
2023/09/07 09:01:51;;;;;;;15.05;4.32;;;20.00;75.10;;;;;;6277256;22;20015;-77
2023/09/07 09:04:21;;;;;;;10.45;4.28;;;20.00;75.10;;;;;;6226670;22;20018;-76
2023/09/07 09:06:48;;;;;;;12.77;4.35;;;20.00;75.00;;;;;;6276760;22;20122;-76
2023/09/07 09:09:25;;;;;;;11.57;4.15;;;20.00;74.90;;;;;;6277986;22;20082;-77
2023/09/07 09:11:52;;;;;;;12.80;4.40;;;20.10;74.90;;;;;;6278007;22;20435;-78
2023/09/07 09:14:22;;;;;;;12.05;4.15;;;20.10;74.80;;;;;;6277744;22;20441;-80
2023/09/07 09:16:52;;;;;;;11.17;4.73;;;20.10;75.00;;;;;;6278537;22;20007;-79
2023/09/07 09:19:30;;;;;;;17.30;4.10;;;20.00;75.30;;;;;;6277084;22;19999;-85
2023/09/07 09:21:57;;;;;;;15.65;4.95;;;20.00;75.40;;;;;;6301809;22;20753;-78
2023/09/07 09:24:24;;;;;;;16.80;4.95;;;20.00;75.60;;;;;;6304567;22;20010;-78
2023/09/07 09:26:52;;;;;;;15.70;4.50;;;20.00;75.60;;;;;;6304051;22;20472;-78
2023/09/07 09:29:23;;;;;;;15.07;4.28;;;20.00;75.40;;;;;;6276953;22;20003;-78
2023/09/07 09:31:54;;;;;;;15.73;4.72;;;20.00;75.20;;;;;;6252520;22;20012;-80
2023/09/07 09:34:22;;;;;;;12.60;4.63;;;20.00;75.20;;;;;;6278270;22;20031;-81
2023/09/07 09:36:49;;;;;;;13.48;4.47;;;20.00;75.10;;;;;;6304268;22;19999;-77
2023/09/07 09:39:25;;;;;;;13.30;4.20;;;20.10;74.90;;;;;;6251649;22;20026;-78
2023/09/07 09:41:54;;;;;;;12.40;4.63;;;20.10;74.90;;;;;;6304744;22;20014;-76
2023/09/07 09:44:25;;;;;;;14.88;5.15;;;20.10;74.60;;;;;;6252796;22;20015;-78
2023/09/07 09:46:55;;;;;;;13.98;4.80;;;20.10;74.70;;;;;;6277745;22;20066;-78
2023/09/07 09:49:22;;;;;;;16.48;4.82;;;20.10;74.80;;;;;;6276604;22;20399;-84
2023/09/07 09:51:52;;;;;;;13.05;4.43;;;20.00;74.90;;;;;;6276882;22;20011;-84
2023/09/07 09:54:20;;;;;;;17.55;4.65;;;20.00;74.80;;;;;;6277561;22;20052;-89
2023/09/07 09:56:48;;;;;;;14.30;5.05;;;20.00;74.80;;;;;;6304662;22;19999;-83
2023/09/07 09:59:15;;;;;;;11.77;4.68;;;20.00;74.80;;;;;;6277698;22;20341;-79
2023/09/07 10:01:44;;;;;;;14.23;5.03;;;20.00;74.80;;;;;;6251548;22;20003;-77
2023/09/07 10:04:16;;;;;;;14.23;4.77;;;20.00;74.70;;;;;;6304016;22;20008;-80
2023/09/07 10:06:59;;;;;;;14.73;5.63;;;20.00;74.70;;;;;;6251554;22;20075;-75
2023/09/07 10:09:33;;;;;;;12.32;5.30;;;20.00;74.10;;;;;;6304241;22;20029;-78
2023/09/07 10:12:03;;;;;;;16.45;6.47;;;20.00;74.00;;;;;;6252631;22;20015;-77
2023/09/07 10:14:40;;;;;;;12.00;5.57;;;20.00;73.60;;;;;;6277286;22;20015;-78
2023/09/07 10:17:09;;;;;;;12.88;6.43;;;20.00;73.40;;;;;;6276725;22;20000;-79
2023/09/07 10:19:38;;;;;;;12.15;6.43;;;20.10;72.90;;;;;;6277118;22;20389;-75
2023/09/07 10:22:05;;;;;;;14.15;7.18;;;20.20;72.40;;;;;;6301458;22;20034;-77
2023/09/07 10:24:35;;;;;;;18.60;8.88;;;20.20;72.20;;;;;;6276377;22;20007;-83
2023/09/07 10:27:04;;;;;;;16.10;8.82;;;20.20;71.90;;;;;;6303416;22;20007;-81
2023/09/07 10:29:42;;;;;;;19.38;9.40;;;20.30;71.30;;;;;;6276144;22;19999;-78
2023/09/07 10:32:12;;;;;;;23.25;10.60;;;20.30;71.20;;;;;;6302956;22;20011;-77
2023/09/07 10:34:43;;;;;;;18.20;10.15;;;20.40;70.50;;;;;;6302457;22;20462;-76
2023/09/07 10:37:16;;;;;;;18.73;9.80;;;20.40;69.90;;;;;;6303718;22;20011;-76
2023/09/07 10:39:44;;;;;;;15.70;9.18;;;20.50;69.80;;;;;;6303042;22;20024;-76
2023/09/07 10:42:24;;;;;;;15.68;8.48;;;20.50;69.50;;;;;;6276493;22;20011;-74
2023/09/07 10:44:51;;;;;;;17.17;8.07;;;20.60;69.30;;;;;;6276286;22;20017;-75
2023/09/07 10:47:19;;;;;;;15.70;6.90;;;20.60;69.00;;;;;;6303958;22;20031;-74
2023/09/07 10:49:46;;;;;;;15.70;6.32;;;20.70;67.80;;;;;;6304198;22;20007;-75
2023/09/07 10:52:13;;;;;;;13.13;6.63;;;20.70;67.20;;;;;;6303679;22;20023;-75
2023/09/07 10:54:40;;;;;;;13.43;6.57;;;20.80;66.90;;;;;;6250365;22;20007;-76
2023/09/07 10:57:14;;;;;;;11.65;6.00;;;20.90;66.60;;;;;;6303837;22;20018;-76
2023/09/07 10:59:47;;;;;;;13.90;6.25;;;20.80;66.60;;;;;;6301741;22;20003;-78
2023/09/07 11:02:16;;;;;;;10.63;6.40;;;20.80;66.60;;;;;;6302478;22;20011;-78
2023/09/07 11:04:43;;;;;;;12.00;5.85;;;20.80;66.10;;;;;;6303313;22;20018;-78
2023/09/07 11:07:10;;;;;;;11.98;6.07;;;20.80;66.10;;;;;;6276622;22;20017;-76
2023/09/07 11:09:46;;;;;;;13.27;6.20;;;20.80;65.40;;;;;;6276408;22;20017;-76
2023/09/07 11:21:53;;;;;;;30.30;13.05;;;20.90;63.50;;;;;;6287825;22;20077;-77
2023/09/07 11:24:21;;;;;;;30.80;15.73;;;20.90;63.30;;;;;;6277060;22;20007;-77
2023/09/07 11:26:48;;;;;;;31.80;16.33;;;20.90;62.50;;;;;;6250994;22;20018;-77
2023/09/07 11:29:16;;;;;;;29.40;17.38;;;20.90;62.50;;;;;;6303638;22;20551;-77
2023/09/07 11:31:44;;;;;;;33.13;18.42;;;20.90;62.30;;;;;;6276255;22;20315;-76
2023/09/07 11:34:15;;;;;;;33.55;17.98;;;21.00;61.90;;;;;;6276909;22;20003;-76
2023/09/07 11:36:42;;;;;;;25.88;15.55;;;21.00;61.70;;;;;;6276654;22;20038;-76
2023/09/07 11:39:13;;;;;;;28.60;15.55;;;21.10;60.50;;;;;;6276420;22;20004;-75
2023/09/07 11:41:44;;;;;;;24.58;13.82;;;21.20;60.40;;;;;;6276482;22;20026;-76
2023/09/07 11:44:11;;;;;;;21.40;12.43;;;21.20;60.20;;;;;;6276495;22;20106;-76
2023/09/07 11:46:38;;;;;;;17.02;10.13;;;21.20;60.10;;;;;;6276004;22;20007;-75
2023/09/07 11:49:06;;;;;;;15.70;9.02;;;21.30;58.90;;;;;;6302983;22;20003;-76
2023/09/07 11:51:33;;;;;;;13.90;7.53;;;21.30;58.50;;;;;;6302862;22;20015;-75
2023/09/07 11:54:02;;;;;;;13.25;7.35;;;21.40;57.90;;;;;;6250874;22;20007;-75
2023/09/07 11:56:29;;;;;;;10.35;5.90;;;21.40;57.90;;;;;;6251330;22;20030;-75
2023/09/07 11:58:56;;;;;;;9.65;5.50;;;21.50;57.90;;;;;;6250675;22;20520;-75
2023/09/07 12:01:24;;;;;;;9.63;4.93;;;21.50;57.10;;;;;;6275731;22;20476;-75
2023/09/07 12:03:51;;;;;;;9.38;4.90;;;21.50;56.90;;;;;;6303536;22;20003;-75
2023/09/07 12:06:18;;;;;;;9.20;4.35;;;21.60;56.30;;;;;;6276365;22;20003;-75
2023/09/07 12:09:06;;;;;;;12.55;5.15;;;21.60;56.40;;;;;;6275977;22;20018;-75
2023/09/07 12:11:33;;;;;;;14.48;5.38;;;21.60;56.30;;;;;;6303012;22;20011;-75
2023/09/07 12:14:01;;;;;;;8.55;4.50;;;21.60;56.40;;;;;;6224415;22;20082;-75
2023/09/07 12:16:28;;;;;;;6.78;3.50;;;21.60;56.50;;;;;;6302945;22;20002;-75
2023/09/07 12:18:55;;;;;;;7.30;3.30;;;21.60;56.10;;;;;;6275031;22;20003;-74
2023/09/07 12:21:23;;;;;;;7.65;3.50;;;21.60;55.90;;;;;;6299965;22;20405;-74
2023/09/07 12:23:50;;;;;;;6.35;3.00;;;21.70;55.60;;;;;;6302919;22;20003;-75
2023/09/07 12:26:19;;;;;;;9.63;2.83;;;21.70;55.50;;;;;;6303779;22;19999;-74
2023/09/07 12:28:46;;;;;;;6.38;2.90;;;21.80;55.10;;;;;;6302624;22;20017;-75
2023/09/07 12:31:14;;;;;;;16.38;2.78;;;21.80;55.10;;;;;;6275633;22;20066;-74
2023/09/07 12:33:42;;;;;;;10.93;2.90;;;21.90;54.30;;;;;;6302566;22;20453;-73
2023/09/07 12:36:10;;;;;;;14.35;2.53;;;22.00;54.00;;;;;;6303290;22;20000;-72
2023/09/07 12:38:37;;;;;;;15.23;2.92;;;21.90;54.70;;;;;;6302906;22;20023;-74
2023/09/07 12:41:04;;;;;;;12.80;2.40;;;21.80;55.70;;;;;;6303986;22;20003;-74
2023/09/07 12:43:32;;;;;;;13.50;2.30;;;21.70;56.40;;;;;;6278708;22;20045;-75
2023/09/07 12:45:59;;;;;;;8.63;1.90;;;21.60;57.10;;;;;;6305623;22;20038;-74
2023/09/07 12:48:26;;;;;;;8.73;1.88;;;21.50;57.60;;;;;;6305428;22;20007;-75
2023/09/07 12:50:55;;;;;;;4.05;1.75;;;21.30;58.40;;;;;;6306178;22;20060;-74
2023/09/07 12:53:26;;;;;;;6.45;1.55;;;21.30;58.70;;;;;;6278492;22;20034;-77
2023/09/07 12:55:53;;;;;;;6.47;1.48;;;21.30;59.60;;;;;;6305739;22;20023;-74
2023/09/07 12:58:21;;;;;;;9.30;1.40;;;21.30;59.80;;;;;;6305366;22;20377;-74
2023/09/07 13:00:48;;;;;;;4.20;1.48;;;21.20;60.40;;;;;;6305940;22;20026;-74
2023/09/07 13:03:16;;;;;;;2.47;1.40;;;21.20;60.90;;;;;;6305959;22;20006;-74
2023/09/07 13:05:43;;;;;;;2.45;1.40;;;21.10;61.10;;;;;;6278343;22;20011;-73
2023/09/07 13:08:11;;;;;;;4.70;1.40;;;21.10;61.60;;;;;;6279010;22;20052;-74
2023/09/07 13:10:38;;;;;;;1.77;1.30;;;21.00;62.10;;;;;;6278702;22;20011;-74
2023/09/07 13:13:06;;;;;;;3.38;1.67;;;20.90;62.10;;;;;;6278701;22;20022;-74
2023/09/07 13:15:33;;;;;;;3.83;1.48;;;20.80;62.30;;;;;;6305822;22;20082;-73
2023/09/07 13:18:00;;;;;;;3.78;1.50;;;20.80;62.50;;;;;;6278952;22;20070;-73
2023/09/07 13:20:28;;;;;;;3.75;1.40;;;20.70;63.10;;;;;;6305623;22;20003;-73
2023/09/07 13:22:55;;;;;;;1.38;1.17;;;20.70;62.80;;;;;;6278054;22;20014;-75
2023/09/07 13:25:22;;;;;;;6.30;1.30;;;20.70;62.80;;;;;;6306310;22;20011;-74
2023/09/07 13:27:50;;;;;;;4.22;1.40;;;20.60;63.00;;;;;;6306251;22;20026;-74
2023/09/07 13:30:17;;;;;;;5.35;1.50;;;20.60;63.00;;;;;;6306682;22;20003;-74
2023/09/07 13:32:46;;;;;;;1.95;1.30;;;20.50;62.80;;;;;;6306553;22;20015;-73
2023/09/07 13:35:13;;;;;;;3.13;1.70;;;20.60;62.70;;;;;;6306476;22;20429;-73
2023/09/07 13:37:41;;;;;;;4.13;1.45;;;20.60;62.50;;;;;;6306349;22;20077;-74
2023/09/07 13:40:08;;;;;;;1.30;1.20;;;20.50;62.40;;;;;;6305943;22;20007;-75
2023/09/07 13:42:36;;;;;;;3.38;1.30;;;20.60;62.50;;;;;;6307857;22;20057;-75
2023/09/07 13:45:03;;;;;;;3.03;1.67;;;20.50;62.60;;;;;;6308378;22;20003;-75
2023/09/07 14:26:49;;;;;;;4.85;2.00;;;20.70;59.70;;;;;;6245982;23;20031;-74
2023/09/07 14:29:16;;;;;;;1.88;1.73;;;20.70;59.60;;;;;;6245565;23;20012;-75
2023/09/07 14:31:43;;;;;;;2.65;2.20;;;20.80;59.80;;;;;;6218615;23;20058;-75
2023/09/07 14:34:11;;;;;;;3.78;2.15;;;20.80;59.60;;;;;;6219043;23;20009;-74
2023/09/07 14:36:38;;;;;;;3.22;2.08;;;20.80;60.10;;;;;;6244906;23;20003;-75
2023/09/07 14:39:09;;;;;;;2.92;2.13;;;20.70;60.30;;;;;;6218519;23;20004;-74
2023/09/07 14:41:36;;;;;;;;;;;20.70;60.50;;;;;;6245684;23;20058;-75
2023/09/07 14:44:03;;;;;;;3.60;2.10;;;20.70;60.60;;;;;;6245602;23;20319;-75
2023/09/07 14:46:30;;;;;;;2.17;1.85;;;20.70;60.80;;;;;;6245921;23;20446;-74
2023/09/07 14:48:57;;;;;;;4.55;1.98;;;20.70;61.20;;;;;;6193325;23;20485;-74
2023/09/07 14:51:25;;;;;;;4.22;2.30;;;20.70;61.00;;;;;;6244342;23;20000;-74
2023/09/07 14:53:53;;;;;;;2.47;1.90;;;20.70;61.30;;;;;;6245920;23;20004;-74
2023/09/07 14:56:20;;;;;;;4.13;2.10;;;20.60;61.20;;;;;;6246110;23;19996;-74
2023/09/07 14:58:47;;;;;;;3.35;2.30;;;20.60;61.10;;;;;;6218300;23;20066;-74
2023/09/07 15:01:15;;;;;;;3.28;2.30;;;20.60;61.00;;;;;;6244737;23;20378;-74
2023/09/07 15:03:42;;;;;;;7.78;2.45;;;20.70;60.40;;;;;;6243523;23;20004;-74
2023/09/07 15:06:11;;;;;;;4.78;2.50;;;20.70;60.30;;;;;;6243417;23;20006;-74
2023/09/07 15:08:39;;;;;;;4.55;2.47;;;20.80;60.10;;;;;;6217276;23;20004;-74
2023/09/07 15:11:06;;;;;;;5.43;2.47;;;20.80;59.70;;;;;;6242371;23;20059;-74
2023/09/07 15:13:34;;;;;;;5.35;2.30;;;20.90;58.90;;;;;;6242880;23;20012;-75
2023/09/07 15:16:01;;;;;;;11.13;2.70;;;21.00;58.10;;;;;;6243067;23;20007;-74
2023/09/07 15:18:31;;;;;;;2.80;2.03;;;21.10;58.50;;;;;;6242329;23;20024;-73
2023/09/07 15:20:58;;;;;;;9.05;2.40;;;21.10;57.80;;;;;;6219090;23;20055;-73
2023/09/07 15:23:26;;;;;;;10.50;2.72;;;21.10;56.50;;;;;;6245545;23;20351;-74
2023/09/07 15:25:53;;;;;;;9.32;2.72;;;21.30;56.20;;;;;;6219240;23;20020;-74
2023/09/07 15:28:21;;;;;;;6.65;2.90;;;21.40;56.90;;;;;;6219322;23;20000;-74
2023/09/07 15:30:48;;;;;;;4.38;2.30;;;21.30;58.10;;;;;;6245374;23;20000;-74
2023/09/07 15:33:15;;;;;;;6.93;2.20;;;21.30;58.40;;;;;;6193835;23;20011;-75
2023/09/07 15:35:42;;;;;;;4.60;2.47;;;21.20;58.20;;;;;;6245468;23;20352;-74
2023/09/07 15:38:10;;;;;;;4.03;2.70;;;21.10;58.90;;;;;;6219158;23;20091;-74
2023/09/07 15:40:38;;;;;;;4.72;2.42;;;21.00;59.00;;;;;;6244945;23;20034;-74
2023/09/07 15:43:06;;;;;;;4.00;2.63;;;21.00;59.90;;;;;;6245260;23;20012;-73
2023/09/07 15:45:34;;;;;;;3.45;2.40;;;21.00;62.60;;;;;;6245342;23;20007;-73
2023/09/07 15:48:02;;;;;;;6.57;2.60;;;20.80;63.60;;;;;;6217775;23;20043;-74
2023/09/07 15:50:29;;;;;;;3.63;2.40;;;20.70;66.10;;;;;;6244997;23;20069;-73
2023/09/07 15:52:56;;;;;;;4.60;2.45;;;20.50;66.80;;;;;;6244336;23;20016;-74
2023/09/07 15:55:23;;;;;;;2.67;2.20;;;20.30;67.80;;;;;;6244871;23;20000;-74
2023/09/07 15:57:51;;;;;;;3.80;2.08;;;20.20;67.70;;;;;;6218153;23;20054;-74
2023/09/07 16:00:18;;;;;;;4.10;2.30;;;20.10;68.00;;;;;;6245083;23;20423;-74
2023/09/07 16:02:46;;;;;;;2.20;2.00;;;20.00;67.00;;;;;;6243999;23;20439;-74
2023/09/07 16:05:13;;;;;;;1.85;1.60;;;20.00;66.80;;;;;;6244513;23;20335;-74
2023/09/07 16:07:40;;;;;;;2.10;1.90;;;20.00;66.70;;;;;;6245115;23;20000;-74
2023/09/07 16:10:08;;;;;;;1.85;1.73;;;20.00;67.10;;;;;;6217820;23;20376;-74
2023/09/07 16:12:35;;;;;;;2.85;2.13;;;20.00;66.80;;;;;;6244684;23;20016;-74
2023/09/07 16:15:02;;;;;;;1.80;1.70;;;20.00;66.20;;;;;;6245356;23;20434;-74
2023/09/07 16:17:30;;;;;;;3.20;1.80;;;20.00;66.80;;;;;;6218469;23;20412;-74
2023/09/07 16:19:57;;;;;;;2.03;1.63;;;20.00;66.70;;;;;;6245003;23;20012;-74
2023/09/07 16:22:24;;;;;;;1.80;1.60;;;19.90;66.70;;;;;;6245093;23;20011;-74
2023/09/07 16:24:51;;;;;;;3.15;1.50;;;20.00;66.60;;;;;;6218566;23;20012;-74
2023/09/07 16:27:20;;;;;;;2.15;1.55;;;19.90;67.30;;;;;;6245103;23;20340;-74
2023/09/07 16:29:47;;;;;;;3.22;1.42;;;19.90;66.80;;;;;;6244844;23;20000;-74
2023/09/07 16:32:20;;;;;;;1.90;1.48;;;19.90;67.00;;;;;;6244439;23;20457;-74
2023/09/07 16:34:48;;;;;;;3.10;1.50;;;19.90;67.20;;;;;;6244217;23;20027;-74
2023/09/07 16:37:15;;;;;;;1.95;1.40;;;19.90;67.40;;;;;;6244352;23;20008;-74
2023/09/07 16:39:43;;;;;;;1.40;1.30;;;19.90;67.50;;;;;;6245120;23;20489;-74
2023/09/07 16:42:10;;;;;;;1.98;1.48;;;19.80;67.70;;;;;;6217815;23;20458;-74
2023/09/07 16:44:37;;;;;;;1.45;1.33;;;19.80;67.70;;;;;;6244694;23;20039;-74
2023/09/07 16:47:05;;;;;;;1.75;1.35;;;19.80;68.20;;;;;;6245186;23;20027;-75
2023/09/07 16:49:32;;;;;;;1.83;1.60;;;19.80;68.30;;;;;;6245144;23;20076;-74
2023/09/07 16:51:59;;;;;;;2.45;1.63;;;19.70;68.30;;;;;;6244054;23;20374;-73
2023/09/07 16:54:26;;;;;;;2.13;1.60;;;19.70;68.50;;;;;;6244125;23;20008;-74
2023/09/07 16:56:54;;;;;;;1.77;1.67;;;19.70;68.60;;;;;;6244491;23;20000;-74
2023/09/07 16:59:21;;;;;;;1.75;1.50;;;19.70;68.70;;;;;;6217656;23;20435;-74
2023/09/07 17:01:50;;;;;;;1.40;1.30;;;19.70;68.90;;;;;;6244404;23;20007;-74
2023/09/07 17:04:25;;;;;;;1.77;1.55;;;19.70;68.90;;;;;;6243254;23;20047;-74
2023/09/07 17:06:53;;;;;;;2.50;1.60;;;19.70;69.00;;;;;;6218882;23;20008;-74
2023/09/07 17:09:20;;;;;;;3.05;1.80;;;19.70;69.40;;;;;;6218119;23;20000;-73
2023/09/07 17:11:47;;;;;;;6.03;2.03;;;19.70;69.50;;;;;;6244238;23;20097;-74
2023/09/07 17:14:14;;;;;;;2.28;1.67;;;19.70;69.50;;;;;;6243709;23;20054;-74
2023/09/07 17:16:42;;;;;;;2.83;1.73;;;19.70;69.60;;;;;;6246488;23;20075;-74
2023/09/07 17:19:09;;;;;;;3.15;1.67;;;19.70;69.90;;;;;;6246894;23;20071;-74
2023/09/07 17:21:39;;;;;;;2.50;1.70;;;19.70;69.70;;;;;;6247078;23;20010;-74
2023/09/07 17:24:07;;;;;;;2.58;1.80;;;19.70;69.90;;;;;;6246403;23;20092;-74
2023/09/07 17:26:34;;;;;;;6.22;2.17;;;19.70;70.10;;;;;;6274798;22;20015;-73
2023/09/07 17:29:01;;;;;;;3.75;1.70;;;19.70;70.40;;;;;;6249746;22;20004;-74
2023/09/07 17:31:29;;;;;;;3.92;2.03;;;19.70;70.30;;;;;;6276520;22;20010;-74
2023/09/07 17:33:56;;;;;;;2.58;2.08;;;19.60;70.20;;;;;;6276401;22;20008;-74
2023/09/07 17:36:24;;;;;;;2.15;1.60;;;19.70;70.20;;;;;;6250002;22;20008;-74
2023/09/07 17:38:57;;;;;;;2.83;1.85;;;19.70;69.90;;;;;;6250579;22;20039;-74
2023/09/07 17:41:27;;;;;;;2.15;1.90;;;19.70;69.90;;;;;;6277289;22;20004;-74
2023/09/07 17:43:55;;;;;;;3.33;1.90;;;19.70;69.80;;;;;;6277354;22;20003;-74
2023/09/07 17:46:23;;;;;;;5.55;1.65;;;19.70;69.70;;;;;;6224309;22;20047;-74
2023/09/07 17:48:50;;;;;;;3.55;1.90;;;19.70;69.80;;;;;;6249775;22;20015;-75
2023/09/07 17:51:17;;;;;;;2.53;1.70;;;19.70;69.80;;;;;;6277229;22;20058;-74
2023/09/07 17:53:46;;;;;;;2.88;1.83;;;19.70;70.20;;;;;;6250470;22;20008;-74
2023/09/07 17:56:13;;;;;;;3.38;2.03;;;19.70;70.10;;;;;;6276271;22;20028;-74
2023/09/07 17:58:41;;;;;;;3.65;1.90;;;19.70;70.30;;;;;;6276104;22;20078;-75
2023/09/07 18:01:13;;;;;;;2.03;1.83;;;19.60;70.10;;;;;;6277279;22;20016;-74
2023/09/07 18:03:40;;;;;;;2.45;1.70;;;19.60;69.90;;;;;;6277038;22;20026;-74
2023/09/07 18:06:07;;;;;;;2.90;1.90;;;19.70;69.70;;;;;;6249362;22;20520;-74
2023/09/07 18:08:35;;;;;;;2.20;1.90;;;19.70;69.70;;;;;;6250031;22;20000;-74
2023/09/07 18:11:03;;;;;;;2.45;1.80;;;19.60;69.80;;;;;;6276366;22;20018;-74
2023/09/07 18:13:30;;;;;;;4.03;1.77;;;19.70;69.70;;;;;;6277298;22;20026;-74
2023/09/07 18:15:58;;;;;;;3.42;2.00;;;19.60;69.70;;;;;;6276639;22;19996;-74
2023/09/07 18:18:25;;;;;;;2.63;1.90;;;19.60;69.70;;;;;;6276241;22;20000;-74
2023/09/07 18:20:52;;;;;;;3.78;1.80;;;19.60;69.60;;;;;;6276121;22;20025;-75
2023/09/07 18:23:20;;;;;;;2.47;1.73;;;19.60;69.70;;;;;;6276396;22;20007;-74
2023/09/07 18:25:47;;;;;;;2.00;1.80;;;19.60;70.00;;;;;;6275747;22;20016;-75
2023/09/07 18:28:14;;;;;;;2.90;1.83;;;19.60;70.10;;;;;;6249511;22;19996;-75
2023/09/07 18:30:42;;;;;;;2.45;1.80;;;19.60;70.00;;;;;;6276915;22;20061;-75
2023/09/07 18:33:10;;;;;;;2.22;1.70;;;19.50;69.90;;;;;;6275735;22;20016;-75
